Red Banks, Mississippi
Current Conditions -  °F | °C
As of 4:50 PM on Thursday 20 Nov 2014 (Local Time) from KOLV Reporting Station
Broken Clouds Broken Clouds  
Wind Chill: 52°   Ceiling: 6500
Heat Index: 52°   Visibility: 10mi
Dew Point: 30°   Wind: 0mph
Humidity: 44%   Direction: NA
Pressure: 30.2"   Gusts: NA
Location:  34.83°N, 89.56°W
Report Text: KOLV 202250Z 00000KT 10SM BKN065 11/M01 A3020
Loading
Personal Weather Stations






























Interactive Weather Map New forecast layout! Learn more

10-Day Weather Forecast

Advertisements
Track Severe Weather on mobile